Hauptseite
METAR-TAF:

METAR-TAF

Flughäfen :

Fliegerhorst Neuburg

Neuburg, Deutschland

Breite: 48-43N, Länge: 011-13E, Höhe: 380 m

Beobachtung

Neuester Wetterbericht von vor 51 Minuten, um 01:20 UTC
Wind 3 kt aus Nord
Temperatur 13°C
Luftfeuchtigkeit 100%
Luftdruck 1020 hPa
Sichtweite 10 km oder mehr
Durchbrochene Bewölkung in der Höhe von 29000 ft
Flacher Nebel

METAR: ETSN 260120Z 01003KT 9999 MIFG BKN290 13/13 Q1020 BLU+

Zeit: 04:11 (02:11 UTC)


TAF: fehlend

Wetterbeobachtungen und Prognosen von mehr als 4000 Flughäfen (METAR und TAF Bericht).

Die verfügbaren Stationen werden durch gelbe und rote Markierungen auf der Karte dargestellt.

Führen Sie die Maus auf sie, um den Namen der Station zu sehen.

Darauf klicken, um die Beobachtung von Wetterbeobachtungen und Prognosen zu sehen.

Um die Karte zu ändern : klicken Sie auf den grünen Tasten mit einem schwarzen Kreuz Zum Vergrößern, auf den grünen Button mit einem Gedankenstrich zu verkleinern, oder auf die grünen Pfeile für benachbarte Karten.


METAR-TAF: